NCAR-RAP Real-Time Weather Data

Output produced by METARs form (07 March 2021  06:18 UTC)
found at http://weather.rap.ucar.edu/surface/
 
KRFD 070554Z 00000KT 10SM CLR M03/M07 A3034 RMK AO2 SLP281 T10281072 10050 21033 400891044 50003
KRFD 070454Z 00000KT 10SM CLR M02/M07 A3034 RMK AO2 SLP284 T10221067
KRFD 070354Z 00000KT 10SM CLR M01/M06 A3033 RMK AO2 SLP279 T10111056
KRFD 070254Z 00000KT 10SM CLR 00/M06 A3033 RMK AO2 SLP279 T00001056 50000
KRFD 070154Z 00000KT 10SM CLR 01/M06 A3033 RMK AO2 SLP280 T00061061
KRFD 070054Z 07003KT 10SM CLR 04/M06 A3033 RMK AO2 SLP280 T00391056
KRFD 062354Z 02005KT 10SM CLR 05/M06 A3033 RMK AO2 SLP278 T00501061 10089 20050 53003
KRFD 062254Z 32004KT 10SM CLR 08/M05 A3032 RMK AO2 SLP275 T00781050
KRFD 062154Z 32006KT 10SM CLR 08/M07 A3032 RMK AO2 SLP276 T00831072
KRFD 062054Z 31006KT 10SM CLR 09/M06 A3032 RMK AO2 SLP274 T00891061 56017
KRFD 061954Z 19005KT 10SM CLR 08/M04 A3033 RMK AO2 SLP278 T00781044
KRFD 061854Z 23003KT 10SM CLR 08/M05 A3035 RMK AO2 SLP285 T00781050
KRFD 061754Z 00000KT 10SM CLR 07/M05 A3037 RMK AO2 SLP291 T00671050 10067 21039 58003
KRFD 061654Z 00000KT 10SM CLR 04/M05 A3038 RMK AO2 SLP294 T00441050
KRFD 061554Z 00000KT 10SM FEW210 03/M04 A3038 RMK AO2 SLP295 T00331044
KRFD 061454Z 19003KT 10SM FEW065 SCT210 02/M04 A3038 RMK AO2 SLP294 T00171044 50006
KRFD 061354Z 00000KT 10SM BKN070 BKN250 01/M06 A3038 RMK AO2 SLP294 T00061056
KRFD 061254Z 00000KT 10SM BKN075 BKN250 M02/M07 A3037 RMK AO2 SLP291 T10221067